sensor_id;sensor_type;location;lat;lon;timestamp;temperature;humidity
28654;DHT22;24320;56.980;24.336;2022-10-16T00:01:30;11.80;99.90
28654;DHT22;24320;56.980;24.336;2022-10-16T00:03:59;11.80;99.90
28654;DHT22;24320;56.980;24.336;2022-10-16T00:06:28;11.70;99.90
28654;DHT22;24320;56.980;24.336;2022-10-16T00:08:55;11.80;99.90
28654;DHT22;24320;56.980;24.336;2022-10-16T00:11:26;11.70;99.90
28654;DHT22;24320;56.980;24.336;2022-10-16T00:13:57;11.70;99.90
28654;DHT22;24320;56.980;24.336;2022-10-16T00:16:24;11.70;99.90
28654;DHT22;24320;56.980;24.336;2022-10-16T00:18:51;11.70;99.90
28654;DHT22;24320;56.980;24.336;2022-10-16T00:21:20;11.70;99.90
28654;DHT22;24320;56.980;24.336;2022-10-16T00:23:53;11.70;99.90
28654;DHT22;24320;56.980;24.336;2022-10-16T00:26:20;11.60;99.90
28654;DHT22;24320;56.980;24.336;2022-10-16T00:28:49;11.70;99.90
28654;DHT22;24320;56.980;24.336;2022-10-16T00:31:18;11.70;99.90
28654;DHT22;24320;56.980;24.336;2022-10-16T00:33:45;11.60;99.90
28654;DHT22;24320;56.980;24.336;2022-10-16T00:36:15;11.60;99.90
28654;DHT22;24320;56.980;24.336;2022-10-16T00:38:43;11.60;99.90
28654;DHT22;24320;56.980;24.336;2022-10-16T00:41:15;11.60;99.90
28654;DHT22;24320;56.980;24.336;2022-10-16T00:46:26;11.60;99.90
28654;DHT22;24320;56.980;24.336;2022-10-16T00:49:09;11.50;99.90
28654;DHT22;24320;56.980;24.336;2022-10-16T00:51:39;11.50;99.90
28654;DHT22;24320;56.980;24.336;2022-10-16T00:54:16;11.50;99.90
28654;DHT22;24320;56.980;24.336;2022-10-16T00:56:45;11.50;99.90
28654;DHT22;24320;56.980;24.336;2022-10-16T00:59:21;11.50;99.90
28654;DHT22;24320;56.980;24.336;2022-10-16T01:01:51;11.60;99.90
28654;DHT22;24320;56.980;24.336;2022-10-16T01:04:19;11.60;99.90
28654;DHT22;24320;56.980;24.336;2022-10-16T01:17:33;11.60;99.90
28654;DHT22;24320;56.980;24.336;2022-10-16T01:22:50;11.60;99.90
28654;DHT22;24320;56.980;24.336;2022-10-16T01:28:22;11.60;99.90
28654;DHT22;24320;56.980;24.336;2022-10-16T01:30:57;11.60;99.90
28654;DHT22;24320;56.980;24.336;2022-10-16T01:33:42;11.60;99.90
28654;DHT22;24320;56.980;24.336;2022-10-16T01:36:18;11.60;99.90
28654;DHT22;24320;56.980;24.336;2022-10-16T01:38:52;11.70;99.90
28654;DHT22;24320;56.980;24.336;2022-10-16T01:41:51;11.80;99.90
28654;DHT22;24320;56.980;24.336;2022-10-16T01:44:28;11.70;99.90
28654;DHT22;24320;56.980;24.336;2022-10-16T01:47:01;11.80;99.90
28654;DHT22;24320;56.980;24.336;2022-10-16T01:49:33;11.80;99.90
28654;DHT22;24320;56.980;24.336;2022-10-16T01:52:07;11.80;99.90
28654;DHT22;24320;56.980;24.336;2022-10-16T01:54:40;11.80;99.90
28654;DHT22;24320;56.980;24.336;2022-10-16T01:57:13;11.80;99.90
28654;DHT22;24320;56.980;24.336;2022-10-16T01:59:47;11.80;99.90
28654;DHT22;24320;56.980;24.336;2022-10-16T02:02:18;11.80;99.90
28654;DHT22;24320;56.980;24.336;2022-10-16T02:04:56;11.80;99.90
28654;DHT22;24320;56.980;24.336;2022-10-16T02:07:29;11.80;99.90
28654;DHT22;24320;56.980;24.336;2022-10-16T02:10:00;11.80;99.90
28654;DHT22;24320;56.980;24.336;2022-10-16T02:12:37;11.80;99.90
28654;DHT22;24320;56.980;24.336;2022-10-16T02:15:08;11.80;99.90
28654;DHT22;24320;56.980;24.336;2022-10-16T02:17:38;11.70;99.90
28654;DHT22;24320;56.980;24.336;2022-10-16T02:20:08;11.70;99.90
28654;DHT22;24320;56.980;24.336;2022-10-16T02:22:47;11.80;99.90
28654;DHT22;24320;56.980;24.336;2022-10-16T02:25:38;11.80;99.90
28654;DHT22;24320;56.980;24.336;2022-10-16T02:28:22;11.70;99.90
28654;DHT22;24320;56.980;24.336;2022-10-16T02:31:06;11.80;99.90
28654;DHT22;24320;56.980;24.336;2022-10-16T02:33:40;11.70;99.90
28654;DHT22;24320;56.980;24.336;2022-10-16T02:36:11;11.70;99.90
28654;DHT22;24320;56.980;24.336;2022-10-16T02:38:42;11.70;99.90
28654;DHT22;24320;56.980;24.336;2022-10-16T02:41:10;11.80;99.90
28654;DHT22;24320;56.980;24.336;2022-10-16T02:43:40;11.80;99.90
28654;DHT22;24320;56.980;24.336;2022-10-16T02:46:10;11.80;99.90
28654;DHT22;24320;56.980;24.336;2022-10-16T02:48:40;11.80;99.90
28654;DHT22;24320;56.980;24.336;2022-10-16T02:51:09;11.80;99.90
28654;DHT22;24320;56.980;24.336;2022-10-16T02:53:41;11.70;99.90
28654;DHT22;24320;56.980;24.336;2022-10-16T02:56:11;11.80;99.90
28654;DHT22;24320;56.980;24.336;2022-10-16T02:58:41;11.70;99.90
28654;DHT22;24320;56.980;24.336;2022-10-16T03:01:11;11.80;99.90
28654;DHT22;24320;56.980;24.336;2022-10-16T03:03:42;11.80;99.90
28654;DHT22;24320;56.980;24.336;2022-10-16T03:06:12;11.80;99.90
28654;DHT22;24320;56.980;24.336;2022-10-16T03:08:41;11.80;99.90
28654;DHT22;24320;56.980;24.336;2022-10-16T03:11:11;11.90;99.90
28654;DHT22;24320;56.980;24.336;2022-10-16T03:13:41;11.90;99.90
28654;DHT22;24320;56.980;24.336;2022-10-16T03:16:11;11.80;99.90
28654;DHT22;24320;56.980;24.336;2022-10-16T03:18:41;11.90;99.90
28654;DHT22;24320;56.980;24.336;2022-10-16T03:21:11;11.90;99.90
28654;DHT22;24320;56.980;24.336;2022-10-16T03:23:41;11.90;99.90
28654;DHT22;24320;56.980;24.336;2022-10-16T03:26:10;12.00;99.90
28654;DHT22;24320;56.980;24.336;2022-10-16T03:28:40;11.90;99.90
28654;DHT22;24320;56.980;24.336;2022-10-16T03:31:10;12.00;99.90
28654;DHT22;24320;56.980;24.336;2022-10-16T03:33:39;12.00;99.90
28654;DHT22;24320;56.980;24.336;2022-10-16T03:36:09;12.00;99.90
28654;DHT22;24320;56.980;24.336;2022-10-16T03:38:39;12.10;99.90
28654;DHT22;24320;56.980;24.336;2022-10-16T03:41:07;12.10;99.90
28654;DHT22;24320;56.980;24.336;2022-10-16T03:43:37;12.10;99.90
28654;DHT22;24320;56.980;24.336;2022-10-16T03:46:07;12.20;99.90
28654;DHT22;24320;56.980;24.336;2022-10-16T03:48:35;12.20;99.90
28654;DHT22;24320;56.980;24.336;2022-10-16T03:51:04;12.20;99.90
28654;DHT22;24320;56.980;24.336;2022-10-16T03:53:33;12.20;99.90
28654;DHT22;24320;56.980;24.336;2022-10-16T03:56:02;12.20;99.90
28654;DHT22;24320;56.980;24.336;2022-10-16T03:58:32;12.20;99.90
28654;DHT22;24320;56.980;24.336;2022-10-16T04:01:02;12.20;99.90
28654;DHT22;24320;56.980;24.336;2022-10-16T04:03:31;12.20;99.90
28654;DHT22;24320;56.980;24.336;2022-10-16T04:06:01;12.20;99.90
28654;DHT22;24320;56.980;24.336;2022-10-16T04:08:30;12.20;99.90
28654;DHT22;24320;56.980;24.336;2022-10-16T04:11:03;12.30;99.90
28654;DHT22;24320;56.980;24.336;2022-10-16T04:13:32;12.30;99.90
28654;DHT22;24320;56.980;24.336;2022-10-16T04:15:59;12.30;99.90
28654;DHT22;24320;56.980;24.336;2022-10-16T04:18:26;12.30;99.90
28654;DHT22;24320;56.980;24.336;2022-10-16T04:20:54;12.30;99.90
28654;DHT22;24320;56.980;24.336;2022-10-16T04:23:21;12.30;99.90
28654;DHT22;24320;56.980;24.336;2022-10-16T04:25:49;12.30;99.90
28654;DHT22;24320;56.980;24.336;2022-10-16T04:28:17;12.40;99.90
28654;DHT22;24320;56.980;24.336;2022-10-16T04:30:44;12.40;99.90
28654;DHT22;24320;56.980;24.336;2022-10-16T04:33:11;12.40;99.90
28654;DHT22;24320;56.980;24.336;2022-10-16T04:35:39;12.40;99.90
28654;DHT22;24320;56.980;24.336;2022-10-16T04:38:06;12.40;99.90
28654;DHT22;24320;56.980;24.336;2022-10-16T04:40:33;12.40;99.90
28654;DHT22;24320;56.980;24.336;2022-10-16T04:43:03;12.40;99.90
28654;DHT22;24320;56.980;24.336;2022-10-16T04:45:31;12.50;99.90
28654;DHT22;24320;56.980;24.336;2022-10-16T04:47:58;12.50;99.90
28654;DHT22;24320;56.980;24.336;2022-10-16T04:50:26;12.50;99.90
28654;DHT22;24320;56.980;24.336;2022-10-16T04:52:53;12.50;99.90
28654;DHT22;24320;56.980;24.336;2022-10-16T04:55:20;12.40;99.90
28654;DHT22;24320;56.980;24.336;2022-10-16T04:57:47;12.50;99.90
28654;DHT22;24320;56.980;24.336;2022-10-16T05:00:14;12.50;99.90
28654;DHT22;24320;56.980;24.336;2022-10-16T05:02:40;12.50;99.90
28654;DHT22;24320;56.980;24.336;2022-10-16T05:05:08;12.60;99.90
28654;DHT22;24320;56.980;24.336;2022-10-16T05:07:35;12.50;99.90
28654;DHT22;24320;56.980;24.336;2022-10-16T05:10:02;12.50;99.90
28654;DHT22;24320;56.980;24.336;2022-10-16T05:12:29;12.50;99.90
28654;DHT22;24320;56.980;24.336;2022-10-16T05:14:56;12.50;99.90
28654;DHT22;24320;56.980;24.336;2022-10-16T05:17:26;12.50;99.90
28654;DHT22;24320;56.980;24.336;2022-10-16T05:19:54;12.50;99.90
28654;DHT22;24320;56.980;24.336;2022-10-16T05:22:21;12.60;99.90
28654;DHT22;24320;56.980;24.336;2022-10-16T05:24:48;12.60;99.90
28654;DHT22;24320;56.980;24.336;2022-10-16T05:27:14;12.60;99.90
28654;DHT22;24320;56.980;24.336;2022-10-16T05:29:46;12.60;99.90
28654;DHT22;24320;56.980;24.336;2022-10-16T05:32:15;12.70;99.90
28654;DHT22;24320;56.980;24.336;2022-10-16T05:34:43;12.60;99.90
28654;DHT22;24320;56.980;24.336;2022-10-16T05:37:10;12.70;99.90
28654;DHT22;24320;56.980;24.336;2022-10-16T05:39:38;12.70;99.90
28654;DHT22;24320;56.980;24.336;2022-10-16T05:42:05;12.70;99.90
28654;DHT22;24320;56.980;24.336;2022-10-16T05:44:33;12.70;99.90
28654;DHT22;24320;56.980;24.336;2022-10-16T05:47:04;12.70;99.90
28654;DHT22;24320;56.980;24.336;2022-10-16T05:49:31;12.80;99.90
28654;DHT22;24320;56.980;24.336;2022-10-16T05:52:02;12.70;99.90
28654;DHT22;24320;56.980;24.336;2022-10-16T05:54:29;12.80;99.90
28654;DHT22;24320;56.980;24.336;2022-10-16T05:56:56;12.80;99.90
28654;DHT22;24320;56.980;24.336;2022-10-16T05:59:23;12.80;99.90
28654;DHT22;24320;56.980;24.336;2022-10-16T06:01:49;12.80;99.90
28654;DHT22;24320;56.980;24.336;2022-10-16T06:04:16;12.80;99.90
28654;DHT22;24320;56.980;24.336;2022-10-16T06:06:43;12.80;99.90
28654;DHT22;24320;56.980;24.336;2022-10-16T06:09:10;12.90;99.90
28654;DHT22;24320;56.980;24.336;2022-10-16T06:11:37;12.90;99.90
28654;DHT22;24320;56.980;24.336;2022-10-16T06:14:04;12.90;99.90
28654;DHT22;24320;56.980;24.336;2022-10-16T06:19:11;12.90;99.90
28654;DHT22;24320;56.980;24.336;2022-10-16T06:21:38;13.00;99.90
28654;DHT22;24320;56.980;24.336;2022-10-16T06:24:05;13.00;99.90
28654;DHT22;24320;56.980;24.336;2022-10-16T06:26:32;13.00;99.90
28654;DHT22;24320;56.980;24.336;2022-10-16T06:28:59;13.00;99.90
28654;DHT22;24320;56.980;24.336;2022-10-16T06:31:28;13.00;99.90
28654;DHT22;24320;56.980;24.336;2022-10-16T06:33:58;13.00;99.90
28654;DHT22;24320;56.980;24.336;2022-10-16T06:36:26;13.10;99.90
28654;DHT22;24320;56.980;24.336;2022-10-16T06:38:53;13.10;99.90
28654;DHT22;24320;56.980;24.336;2022-10-16T06:41:21;13.10;99.90
28654;DHT22;24320;56.980;24.336;2022-10-16T06:43:49;13.10;99.90
28654;DHT22;24320;56.980;24.336;2022-10-16T06:46:19;13.10;99.90
28654;DHT22;24320;56.980;24.336;2022-10-16T06:48:46;13.20;99.90
28654;DHT22;24320;56.980;24.336;2022-10-16T06:51:15;13.20;99.90
28654;DHT22;24320;56.980;24.336;2022-10-16T06:53:54;13.20;99.90
28654;DHT22;24320;56.980;24.336;2022-10-16T06:56:31;13.30;99.90
28654;DHT22;24320;56.980;24.336;2022-10-16T06:58:59;13.30;99.90
28654;DHT22;24320;56.980;24.336;2022-10-16T07:01:26;13.40;99.90
28654;DHT22;24320;56.980;24.336;2022-10-16T07:03:53;13.40;99.90
28654;DHT22;24320;56.980;24.336;2022-10-16T07:06:22;13.40;99.90
28654;DHT22;24320;56.980;24.336;2022-10-16T07:08:50;13.40;99.90
28654;DHT22;24320;56.980;24.336;2022-10-16T07:11:20;13.50;99.90
28654;DHT22;24320;56.980;24.336;2022-10-16T07:13:48;13.50;99.90
28654;DHT22;24320;56.980;24.336;2022-10-16T07:16:24;13.50;99.90
28654;DHT22;24320;56.980;24.336;2022-10-16T07:18:53;13.50;99.90
28654;DHT22;24320;56.980;24.336;2022-10-16T07:21:26;13.50;99.90
28654;DHT22;24320;56.980;24.336;2022-10-16T07:23:59;13.50;99.90
28654;DHT22;24320;56.980;24.336;2022-10-16T07:26:30;13.50;99.90
28654;DHT22;24320;56.980;24.336;2022-10-16T07:28:57;13.50;99.90
28654;DHT22;24320;56.980;24.336;2022-10-16T07:31:25;13.50;99.90
28654;DHT22;24320;56.980;24.336;2022-10-16T07:33:54;13.40;99.90
28654;DHT22;24320;56.980;24.336;2022-10-16T07:36:22;13.40;99.90
28654;DHT22;24320;56.980;24.336;2022-10-16T07:38:49;13.40;99.90
28654;DHT22;24320;56.980;24.336;2022-10-16T07:41:21;13.40;99.90
28654;DHT22;24320;56.980;24.336;2022-10-16T07:43:49;13.40;99.90
28654;DHT22;24320;56.980;24.336;2022-10-16T07:46:17;13.40;99.90
28654;DHT22;24320;56.980;24.336;2022-10-16T07:48:44;13.40;99.90
28654;DHT22;24320;56.980;24.336;2022-10-16T07:51:17;13.40;99.90
28654;DHT22;24320;56.980;24.336;2022-10-16T07:53:44;13.50;99.90
28654;DHT22;24320;56.980;24.336;2022-10-16T07:56:11;13.50;99.90
28654;DHT22;24320;56.980;24.336;2022-10-16T07:58:39;13.60;99.90
28654;DHT22;24320;56.980;24.336;2022-10-16T08:01:08;13.60;99.90
28654;DHT22;24320;56.980;24.336;2022-10-16T08:03:36;13.70;99.90
28654;DHT22;24320;56.980;24.336;2022-10-16T08:06:03;13.80;99.90
28654;DHT22;24320;56.980;24.336;2022-10-16T08:08:31;13.90;99.90
28654;DHT22;24320;56.980;24.336;2022-10-16T08:10:58;14.00;99.90
28654;DHT22;24320;56.980;24.336;2022-10-16T08:13:25;14.10;99.90
28654;DHT22;24320;56.980;24.336;2022-10-16T08:15:54;14.10;99.90
28654;DHT22;24320;56.980;24.336;2022-10-16T08:18:21;14.20;99.90
28654;DHT22;24320;56.980;24.336;2022-10-16T08:20:55;14.20;99.90
28654;DHT22;24320;56.980;24.336;2022-10-16T08:23:22;14.20;99.90
28654;DHT22;24320;56.980;24.336;2022-10-16T08:25:49;14.30;99.90
28654;DHT22;24320;56.980;24.336;2022-10-16T08:28:16;14.40;99.90
28654;DHT22;24320;56.980;24.336;2022-10-16T08:30:44;14.50;99.90
28654;DHT22;24320;56.980;24.336;2022-10-16T08:33:13;14.50;99.90
28654;DHT22;24320;56.980;24.336;2022-10-16T08:35:53;14.50;99.90
28654;DHT22;24320;56.980;24.336;2022-10-16T08:38:22;14.60;99.90
28654;DHT22;24320;56.980;24.336;2022-10-16T08:40:52;14.70;99.90
28654;DHT22;24320;56.980;24.336;2022-10-16T08:43:39;14.70;99.90
28654;DHT22;24320;56.980;24.336;2022-10-16T08:46:34;14.60;99.90
28654;DHT22;24320;56.980;24.336;2022-10-16T08:49:03;14.60;99.90
28654;DHT22;24320;56.980;24.336;2022-10-16T08:51:32;14.60;99.90
28654;DHT22;24320;56.980;24.336;2022-10-16T08:54:21;14.70;99.90
28654;DHT22;24320;56.980;24.336;2022-10-16T08:56:48;14.80;99.90
28654;DHT22;24320;56.980;24.336;2022-10-16T08:59:16;14.90;99.90
28654;DHT22;24320;56.980;24.336;2022-10-16T09:01:50;14.80;99.90
28654;DHT22;24320;56.980;24.336;2022-10-16T09:04:48;14.70;99.90
28654;DHT22;24320;56.980;24.336;2022-10-16T09:10:34;14.60;99.90
28654;DHT22;24320;56.980;24.336;2022-10-16T09:16:01;14.60;99.90
28654;DHT22;24320;56.980;24.336;2022-10-16T09:18:37;14.50;99.90
28654;DHT22;24320;56.980;24.336;2022-10-16T09:21:17;14.50;99.90
28654;DHT22;24320;56.980;24.336;2022-10-16T09:23:45;14.50;99.90
28654;DHT22;24320;56.980;24.336;2022-10-16T09:26:13;14.40;99.90
28654;DHT22;24320;56.980;24.336;2022-10-16T09:28:41;14.40;99.90
28654;DHT22;24320;56.980;24.336;2022-10-16T09:31:16;14.40;99.90
28654;DHT22;24320;56.980;24.336;2022-10-16T09:33:47;14.40;99.90
28654;DHT22;24320;56.980;24.336;2022-10-16T09:36:15;14.50;99.90
28654;DHT22;24320;56.980;24.336;2022-10-16T09:38:42;14.50;99.90
28654;DHT22;24320;56.980;24.336;2022-10-16T09:41:19;14.50;99.90
28654;DHT22;24320;56.980;24.336;2022-10-16T09:43:48;14.60;99.90
28654;DHT22;24320;56.980;24.336;2022-10-16T09:48:55;14.60;99.90
28654;DHT22;24320;56.980;24.336;2022-10-16T09:51:29;14.60;99.90
28654;DHT22;24320;56.980;24.336;2022-10-16T09:54:02;14.50;99.90
28654;DHT22;24320;56.980;24.336;2022-10-16T09:56:34;14.50;99.90
28654;DHT22;24320;56.980;24.336;2022-10-16T09:59:11;14.50;99.90
28654;DHT22;24320;56.980;24.336;2022-10-16T10:04:08;14.50;99.90
28654;DHT22;24320;56.980;24.336;2022-10-16T10:06:40;14.60;99.90
28654;DHT22;24320;56.980;24.336;2022-10-16T10:09:31;14.60;99.90
28654;DHT22;24320;56.980;24.336;2022-10-16T10:12:00;14.60;99.90
28654;DHT22;24320;56.980;24.336;2022-10-16T10:14:37;14.70;99.90
28654;DHT22;24320;56.980;24.336;2022-10-16T10:20:14;14.70;99.90
28654;DHT22;24320;56.980;24.336;2022-10-16T10:22:46;14.70;99.90
28654;DHT22;24320;56.980;24.336;2022-10-16T10:33:59;14.70;99.90
28654;DHT22;24320;56.980;24.336;2022-10-16T10:36:35;14.60;99.90
28654;DHT22;24320;56.980;24.336;2022-10-16T10:50:22;14.60;99.90
28654;DHT22;24320;56.980;24.336;2022-10-16T10:53:11;14.70;99.90
28654;DHT22;24320;56.980;24.336;2022-10-16T11:01:13;14.80;99.90
28654;DHT22;24320;56.980;24.336;2022-10-16T11:04:15;14.90;99.90
28654;DHT22;24320;56.980;24.336;2022-10-16T11:06:55;14.90;99.90
28654;DHT22;24320;56.980;24.336;2022-10-16T11:09:26;15.00;99.90
28654;DHT22;24320;56.980;24.336;2022-10-16T11:17:27;15.20;99.90
28654;DHT22;24320;56.980;24.336;2022-10-16T11:20:05;15.20;99.90
28654;DHT22;24320;56.980;24.336;2022-10-16T11:22:43;15.10;99.90
28654;DHT22;24320;56.980;24.336;2022-10-16T11:25:20;15.10;99.90
28654;DHT22;24320;56.980;24.336;2022-10-16T11:28:11;15.00;99.90
28654;DHT22;24320;56.980;24.336;2022-10-16T11:33:30;14.90;99.90
28654;DHT22;24320;56.980;24.336;2022-10-16T11:36:37;14.80;99.90
28654;DHT22;24320;56.980;24.336;2022-10-16T11:39:16;14.70;99.90
28654;DHT22;24320;56.980;24.336;2022-10-16T11:47:30;14.70;99.90
28654;DHT22;24320;56.980;24.336;2022-10-16T11:50:28;14.70;99.90
28654;DHT22;24320;56.980;24.336;2022-10-16T11:55:47;14.70;99.90
28654;DHT22;24320;56.980;24.336;2022-10-16T12:09:30;14.60;99.90
28654;DHT22;24320;56.980;24.336;2022-10-16T12:11:58;14.60;99.90
28654;DHT22;24320;56.980;24.336;2022-10-16T12:14:42;14.60;99.90
28654;DHT22;24320;56.980;24.336;2022-10-16T12:17:37;14.60;99.90
28654;DHT22;24320;56.980;24.336;2022-10-16T12:23:04;14.50;99.90
28654;DHT22;24320;56.980;24.336;2022-10-16T12:25:36;14.60;99.90
28654;DHT22;24320;56.980;24.336;2022-10-16T12:28:17;14.60;99.90
28654;DHT22;24320;56.980;24.336;2022-10-16T12:30:57;14.70;99.90
28654;DHT22;24320;56.980;24.336;2022-10-16T12:33:32;14.70;99.90
28654;DHT22;24320;56.980;24.336;2022-10-16T12:36:02;14.80;99.90
28654;DHT22;24320;56.980;24.336;2022-10-16T12:38:50;14.80;99.90
28654;DHT22;24320;56.980;24.336;2022-10-16T12:41:30;14.80;99.90
28654;DHT22;24320;56.980;24.336;2022-10-16T12:43:58;14.80;99.90
28654;DHT22;24320;56.980;24.336;2022-10-16T12:51:43;14.80;99.90
28654;DHT22;24320;56.980;24.336;2022-10-16T13:11:43;14.60;99.90
28654;DHT22;24320;56.980;24.336;2022-10-16T13:27:59;14.50;99.90
28654;DHT22;24320;56.980;24.336;2022-10-16T13:30:30;14.60;99.90
28654;DHT22;24320;56.980;24.336;2022-10-16T13:33:30;14.60;99.90
28654;DHT22;24320;56.980;24.336;2022-10-16T13:35:54;14.60;99.90
28654;DHT22;24320;56.980;24.336;2022-10-16T13:38:24;14.60;99.90
28654;DHT22;24320;56.980;24.336;2022-10-16T13:41:15;14.60;99.90
28654;DHT22;24320;56.980;24.336;2022-10-16T13:43:45;14.60;99.90
28654;DHT22;24320;56.980;24.336;2022-10-16T13:46:19;14.60;99.90
28654;DHT22;24320;56.980;24.336;2022-10-16T13:49:06;14.70;99.90
28654;DHT22;24320;56.980;24.336;2022-10-16T13:51:38;14.70;99.90
28654;DHT22;24320;56.980;24.336;2022-10-16T13:54:05;14.70;99.90
28654;DHT22;24320;56.980;24.336;2022-10-16T13:56:32;14.70;99.90
28654;DHT22;24320;56.980;24.336;2022-10-16T13:59:05;14.70;99.90
28654;DHT22;24320;56.980;24.336;2022-10-16T14:01:41;14.70;99.90
28654;DHT22;24320;56.980;24.336;2022-10-16T14:04:11;14.70;99.90
28654;DHT22;24320;56.980;24.336;2022-10-16T14:06:44;14.60;99.90
28654;DHT22;24320;56.980;24.336;2022-10-16T14:09:31;14.50;99.90
28654;DHT22;24320;56.980;24.336;2022-10-16T14:12:06;14.50;99.90
28654;DHT22;24320;56.980;24.336;2022-10-16T14:14:41;14.50;99.90
28654;DHT22;24320;56.980;24.336;2022-10-16T14:17:16;14.40;99.90
28654;DHT22;24320;56.980;24.336;2022-10-16T14:19:50;14.40;99.90
28654;DHT22;24320;56.980;24.336;2022-10-16T14:24:56;14.30;99.90
28654;DHT22;24320;56.980;24.336;2022-10-16T14:27:30;14.30;99.90
28654;DHT22;24320;56.980;24.336;2022-10-16T14:32:41;14.20;99.90
28654;DHT22;24320;56.980;24.336;2022-10-16T14:35:27;14.20;99.90
28654;DHT22;24320;56.980;24.336;2022-10-16T14:37:56;14.20;99.90
28654;DHT22;24320;56.980;24.336;2022-10-16T14:40:27;14.20;99.90
28654;DHT22;24320;56.980;24.336;2022-10-16T14:42:54;14.20;99.90
28654;DHT22;24320;56.980;24.336;2022-10-16T14:45:26;14.10;99.90
28654;DHT22;24320;56.980;24.336;2022-10-16T14:48:14;14.10;99.90
28654;DHT22;24320;56.980;24.336;2022-10-16T14:50:45;14.10;99.90
28654;DHT22;24320;56.980;24.336;2022-10-16T14:53:13;14.20;99.90
28654;DHT22;24320;56.980;24.336;2022-10-16T14:55:41;14.20;99.90
28654;DHT22;24320;56.980;24.336;2022-10-16T14:58:16;14.20;99.90
28654;DHT22;24320;56.980;24.336;2022-10-16T15:00:44;14.20;99.90
28654;DHT22;24320;56.980;24.336;2022-10-16T15:03:11;14.20;99.90
28654;DHT22;24320;56.980;24.336;2022-10-16T15:05:38;14.20;99.90
28654;DHT22;24320;56.980;24.336;2022-10-16T15:08:05;14.20;99.90
28654;DHT22;24320;56.980;24.336;2022-10-16T15:10:38;14.20;99.90
28654;DHT22;24320;56.980;24.336;2022-10-16T15:13:05;14.20;99.90
28654;DHT22;24320;56.980;24.336;2022-10-16T15:15:38;14.20;99.90
28654;DHT22;24320;56.980;24.336;2022-10-16T15:18:07;14.10;99.90
28654;DHT22;24320;56.980;24.336;2022-10-16T15:20:35;14.10;99.90
28654;DHT22;24320;56.980;24.336;2022-10-16T15:23:22;14.10;99.90
28654;DHT22;24320;56.980;24.336;2022-10-16T15:25:53;14.10;99.90
28654;DHT22;24320;56.980;24.336;2022-10-16T15:28:21;14.10;99.90
28654;DHT22;24320;56.980;24.336;2022-10-16T15:30:51;14.00;99.90
28654;DHT22;24320;56.980;24.336;2022-10-16T15:33:21;14.00;99.90
28654;DHT22;24320;56.980;24.336;2022-10-16T15:35:50;14.00;99.90
28654;DHT22;24320;56.980;24.336;2022-10-16T15:38:19;13.90;99.90
28654;DHT22;24320;56.980;24.336;2022-10-16T15:40:48;13.90;99.90
28654;DHT22;24320;56.980;24.336;2022-10-16T15:43:15;13.90;99.90
28654;DHT22;24320;56.980;24.336;2022-10-16T15:45:42;13.90;99.90
28654;DHT22;24320;56.980;24.336;2022-10-16T15:48:13;13.90;99.90
28654;DHT22;24320;56.980;24.336;2022-10-16T15:50:40;13.90;99.90
28654;DHT22;24320;56.980;24.336;2022-10-16T15:53:09;13.90;99.90
28654;DHT22;24320;56.980;24.336;2022-10-16T15:55:36;13.90;99.90
28654;DHT22;24320;56.980;24.336;2022-10-16T15:58:04;13.90;99.90
28654;DHT22;24320;56.980;24.336;2022-10-16T16:00:32;13.90;99.90
28654;DHT22;24320;56.980;24.336;2022-10-16T16:02:59;13.90;99.90
28654;DHT22;24320;56.980;24.336;2022-10-16T16:05:26;13.90;99.90
28654;DHT22;24320;56.980;24.336;2022-10-16T16:07:54;13.90;99.90
28654;DHT22;24320;56.980;24.336;2022-10-16T16:10:21;13.80;99.90
28654;DHT22;24320;56.980;24.336;2022-10-16T16:12:49;13.80;99.90
28654;DHT22;24320;56.980;24.336;2022-10-16T16:15:22;13.80;99.90
28654;DHT22;24320;56.980;24.336;2022-10-16T16:17:49;13.90;99.90
28654;DHT22;24320;56.980;24.336;2022-10-16T16:20:16;13.90;99.90
28654;DHT22;24320;56.980;24.336;2022-10-16T16:22:43;13.90;99.90
28654;DHT22;24320;56.980;24.336;2022-10-16T16:25:10;13.90;99.90
28654;DHT22;24320;56.980;24.336;2022-10-16T16:27:37;13.90;99.90
28654;DHT22;24320;56.980;24.336;2022-10-16T16:30:10;13.90;99.90
28654;DHT22;24320;56.980;24.336;2022-10-16T16:32:45;14.00;99.90
28654;DHT22;24320;56.980;24.336;2022-10-16T16:35:12;14.00;99.90
28654;DHT22;24320;56.980;24.336;2022-10-16T16:37:39;14.00;99.90
28654;DHT22;24320;56.980;24.336;2022-10-16T16:40:06;14.00;99.90
28654;DHT22;24320;56.980;24.336;2022-10-16T16:42:33;14.00;99.90
28654;DHT22;24320;56.980;24.336;2022-10-16T16:45:09;14.00;99.90
28654;DHT22;24320;56.980;24.336;2022-10-16T16:47:36;14.10;99.90
28654;DHT22;24320;56.980;24.336;2022-10-16T16:50:05;14.10;99.90
28654;DHT22;24320;56.980;24.336;2022-10-16T16:52:35;14.10;99.90
28654;DHT22;24320;56.980;24.336;2022-10-16T16:55:02;14.20;99.90
28654;DHT22;24320;56.980;24.336;2022-10-16T16:57:29;14.20;99.90
28654;DHT22;24320;56.980;24.336;2022-10-16T16:59:56;14.20;99.90
28654;DHT22;24320;56.980;24.336;2022-10-16T17:02:23;14.20;99.90
28654;DHT22;24320;56.980;24.336;2022-10-16T17:04:50;14.20;99.90
28654;DHT22;24320;56.980;24.336;2022-10-16T17:07:17;14.20;99.90
28654;DHT22;24320;56.980;24.336;2022-10-16T17:09:49;14.30;99.90
28654;DHT22;24320;56.980;24.336;2022-10-16T17:12:16;14.30;99.90
28654;DHT22;24320;56.980;24.336;2022-10-16T17:14:43;14.30;99.90
28654;DHT22;24320;56.980;24.336;2022-10-16T17:17:10;14.30;99.90
28654;DHT22;24320;56.980;24.336;2022-10-16T17:19:37;14.30;99.90
28654;DHT22;24320;56.980;24.336;2022-10-16T17:22:04;14.40;99.90
28654;DHT22;24320;56.980;24.336;2022-10-16T17:24:31;14.40;99.90
28654;DHT22;24320;56.980;24.336;2022-10-16T17:26:58;14.40;99.90
28654;DHT22;24320;56.980;24.336;2022-10-16T17:29:25;14.40;99.90
28654;DHT22;24320;56.980;24.336;2022-10-16T17:31:52;14.40;99.90
28654;DHT22;24320;56.980;24.336;2022-10-16T17:34:19;14.40;99.90
28654;DHT22;24320;56.980;24.336;2022-10-16T17:36:46;14.40;99.90
28654;DHT22;24320;56.980;24.336;2022-10-16T17:39:15;14.40;99.90
28654;DHT22;24320;56.980;24.336;2022-10-16T17:41:46;14.40;99.90
28654;DHT22;24320;56.980;24.336;2022-10-16T17:44:14;14.40;99.90
28654;DHT22;24320;56.980;24.336;2022-10-16T17:46:51;14.40;99.90
28654;DHT22;24320;56.980;24.336;2022-10-16T17:49:19;14.40;99.90
28654;DHT22;24320;56.980;24.336;2022-10-16T17:51:50;14.40;99.90
28654;DHT22;24320;56.980;24.336;2022-10-16T17:54:18;14.30;99.90